Government of Jersey

Home Log in

METAR EGJJ 200550Z 19006KT 160V220 9999 FEW004 BKN040 15/14 Q1008

METAR EGJB 200550Z 18007KT 9999 1200S R27/P1500 VCFG FEW000 BKN043 13/13 Q1007

METAR LFRD 200530Z AUTO 16004KT CAVOK 13/13 Q1008 NOSIG

METAR LFRC 200530Z AUTO 20006KT 8000 OVC005 13/13 Q1008 BECMG BKN015